Time,TemperatureF,DewpointF,PressureIn,WindDirection,WindDirectionDegrees,WindSpeedMPH,WindSpeedGustMPH,Humidity,HourlyPrecipIn,Conditions,Clouds,dailyrainin,SoftwareType,DateUTC
2013-03-12 00:00:00,53.2,50.0,29.77,NNE,30,1.0,1.0,89,0.01,,,0.04,WUHU216DAVISVP2,2013-03-12 04:00:00,
2013-03-12 00:05:00,53.2,50.0,29.78,NNE,30,1.0,1.0,89,0.01,,,0.00,WUHU216DAVISVP2,2013-03-12 04:05:00,
2013-03-12 00:10:00,52.9,50.0,29.77,West,266,1.0,1.0,90,0.02,,,0.01,WUHU216DAVISVP2,2013-03-12 04:10:00,
2013-03-12 00:15:00,52.8,49.9,29.77,NNE,15,1.0,2.0,90,0.02,,,0.01,WUHU216DAVISVP2,2013-03-12 04:15:00,
2013-03-12 00:20:00,52.5,49.9,29.77,NNE,13,1.0,2.0,91,0.03,,,0.02,WUHU216DAVISVP2,2013-03-12 04:20:00,
2013-03-12 00:25:00,52.4,49.8,29.77,WNW,290,3.3,8.0,91,0.03,,,0.02,WUHU216DAVISVP2,2013-03-12 04:25:00,
2013-03-12 00:30:00,52.5,49.9,29.77,West,281,1.0,8.0,91,0.02,,,0.02,WUHU216DAVISVP2,2013-03-12 04:30:00,
2013-03-12 00:35:00,52.4,49.5,29.77,West,280,0.0,8.0,90,0.02,,,0.02,WUHU216DAVISVP2,2013-03-12 04:35:00,
2013-03-12 00:40:00,52.4,49.5,29.77,WSW,253,2.0,8.0,90,0.03,,,0.03,WUHU216DAVISVP2,2013-03-12 04:40:00,
2013-03-12 00:45:00,52.4,49.6,29.77,SSW,193,1.0,3.0,90,0.05,,,0.05,WUHU216DAVISVP2,2013-03-12 04:45:00,
2013-03-12 00:50:00,52.4,49.8,29.77,WNW,283,1.0,3.0,91,0.06,,,0.06,WUHU216DAVISVP2,2013-03-12 04:50:00,
2013-03-12 00:55:00,52.2,49.6,29.77,West,270,1.1,3.0,91,0.06,,,0.06,WUHU216DAVISVP2,2013-03-12 04:55:00,
2013-03-12 01:00:00,52.0,49.4,29.77,WNW,283,4.0,7.0,91,0.08,,,0.08,WUHU216DAVISVP2,2013-03-12 05:00:00,
2013-03-12 01:05:00,52.2,49.6,29.77,West,277,2.4,8.0,91,0.10,,,0.10,WUHU216DAVISVP2,2013-03-12 05:05:00,
2013-03-12 01:10:00,52.1,49.8,29.77,NW,322,6.0,8.0,92,0.12,,,0.13,WUHU216DAVISVP2,2013-03-12 05:10:00,
2013-03-12 01:15:00,51.2,48.0,29.78,WNW,289,7.0,11.0,89,0.14,,,0.15,WUHU216DAVISVP2,2013-03-12 05:15:00,
2013-03-12 01:20:00,50.3,46.9,29.79,West,262,6.0,11.0,88,0.14,,,0.16,WUHU216DAVISVP2,2013-03-12 05:20:00,
2013-03-12 01:25:00,49.4,46.0,29.79,West,265,7.1,12.0,88,0.15,,,0.17,WUHU216DAVISVP2,2013-03-12 05:25:00,
2013-03-12 01:30:00,48.7,45.3,29.80,West,271,7.9,16.0,88,0.15,,,0.17,WUHU216DAVISVP2,2013-03-12 05:30:00,
2013-03-12 01:35:00,48.1,44.7,29.80,WNW,301,13.0,20.0,88,0.16,,,0.18,WUHU216DAVISVP2,2013-03-12 05:35:00,
2013-03-12 01:40:00,47.5,43.8,29.80,NW,311,8.6,20.0,87,0.15,,,0.18,WUHU216DAVISVP2,2013-03-12 05:40:00,
2013-03-12 01:45:00,46.9,43.5,29.80,WNW,296,11.0,20.0,88,0.13,,,0.18,WUHU216DAVISVP2,2013-03-12 05:45:00,
2013-03-12 01:50:00,46.3,42.9,29.81,WNW,285,5.3,20.0,88,0.12,,,0.18,WUHU216DAVISVP2,2013-03-12 05:50:00,
2013-03-12 01:55:00,45.9,42.5,29.82,WNW,284,9.0,17.0,88,0.12,,,0.18,WUHU216DAVISVP2,2013-03-12 05:55:00,
2013-03-12 02:00:00,45.4,41.7,29.82,WNW,283,4.4,17.0,87,0.10,,,0.18,WUHU216DAVISVP2,2013-03-12 06:00:00,
2013-03-12 02:05:00,45.1,41.4,29.82,WNW,291,6.0,16.0,87,0.08,,,0.18,WUHU216DAVISVP2,2013-03-12 06:05:00,
2013-03-12 02:10:00,44.8,41.1,29.83,West,259,3.0,16.0,87,0.05,,,0.18,WUHU216DAVISVP2,2013-03-12 06:10:00,
2013-03-12 02:15:00,44.6,40.9,29.83,West,280,4.9,13.0,87,0.03,,,0.18,WUHU216DAVISVP2,2013-03-12 06:15:00,
2013-03-12 02:20:00,44.4,41.0,29.83,WNW,300,2.6,13.0,88,0.02,,,0.18,WUHU216DAVISVP2,2013-03-12 06:20:00,
2013-03-12 02:25:00,44.2,41.1,29.84,WNW,285,2.4,12.0,89,0.01,,,0.18,WUHU216DAVISVP2,2013-03-12 06:25:00,
2013-03-12 02:30:00,44.2,40.8,29.84,West,272,3.1,12.0,88,0.01,,,0.18,WUHU216DAVISVP2,2013-03-12 06:30:00,
2013-03-12 02:35:00,44.1,40.7,29.84,West,275,3.7,11.0,88,0.00,,,0.18,WUHU216DAVISVP2,2013-03-12 06:35:00,
2013-03-12 02:40:00,44.0,40.6,29.84,WSW,256,2.6,11.0,88,0.00,,,0.18,WUHU216DAVISVP2,2013-03-12 06:40:00,
2013-03-12 02:45:00,44.0,40.4,29.85,West,264,5.0,10.0,87,0.00,,,0.18,WUHU216DAVISVP2,2013-03-12 06:45:00,
2013-03-12 02:50:00,43.9,40.3,29.85,WSW,246,5.0,10.0,87,0.00,,,0.18,WUHU216DAVISVP2,2013-03-12 06:50:00,
2013-03-12 02:55:00,43.9,40.0,29.86,WSW,257,5.2,11.0,86,0.00,,,0.18,WUHU216DAVISVP2,2013-03-12 06:55:00,
2013-03-12 03:00:00,43.8,39.9,29.85,WSW,250,3.7,11.0,86,0.00,,,0.18,WUHU216DAVISVP2,2013-03-12 07:00:00,
2013-03-12 03:05:00,43.7,39.5,29.85,WSW,255,7.0,11.0,85,0.00,,,0.18,WUHU216DAVISVP2,2013-03-12 07:05:00,
2013-03-12 03:10:00,43.6,39.4,29.85,WSW,245,3.3,11.0,85,0.00,,,0.18,WUHU216DAVISVP2,2013-03-12 07:10:00,
2013-03-12 03:15:00,43.5,39.6,29.85,West,274,4.0,9.0,86,0.00,,,0.18,WUHU216DAVISVP2,2013-03-12 07:15:00,
2013-03-12 03:20:00,43.3,39.4,29.85,WSW,255,2.2,9.0,86,0.00,,,0.18,WUHU216DAVISVP2,2013-03-12 07:20:00,
2013-03-12 03:25:00,43.1,39.2,29.85,WSW,255,2.9,8.0,86,0.00,,,0.18,WUHU216DAVISVP2,2013-03-12 07:25:00,
2013-03-12 03:30:00,42.9,39.3,29.85,WSW,253,1.8,7.0,87,0.00,,,0.18,WUHU216DAVISVP2,2013-03-12 07:30:00,
2013-03-12 03:35:00,42.7,39.1,29.85,WSW,244,1.4,7.0,87,0.00,,,0.18,WUHU216DAVISVP2,2013-03-12 07:35:00,
2013-03-12 03:40:00,42.6,39.3,29.85,West,262,3.0,7.0,88,0.00,,,0.18,WUHU216DAVISVP2,2013-03-12 07:40:00,
2013-03-12 03:45:00,42.5,39.2,29.85,WSW,249,1.5,6.0,88,0.00,,,0.18,WUHU216DAVISVP2,2013-03-12 07:45:00,
2013-03-12 03:50:00,42.4,39.1,29.86,West,259,2.0,6.0,88,0.00,,,0.18,WUHU216DAVISVP2,2013-03-12 07:50:00,
2013-03-12 03:55:00,42.3,39.0,29.86,WSW,251,2.3,7.0,88,0.01,,,0.19,WUHU216DAVISVP2,2013-03-12 07:55:00,
2013-03-12 04:00:00,42.2,39.2,29.86,WSW,252,2.1,7.0,89,0.01,,,0.19,WUHU216DAVISVP2,2013-03-12 08:00:00,
2013-03-12 04:05:00,42.1,39.1,29.86,West,278,2.0,7.0,89,0.01,,,0.19,WUHU216DAVISVP2,2013-03-12 08:05:00,
2013-03-12 04:10:00,41.9,38.9,29.85,West,272,2.2,7.0,89,0.02,,,0.20,WUHU216DAVISVP2,2013-03-12 08:10:00,
2013-03-12 04:15:00,41.8,39.1,29.85,WSW,252,1.7,5.0,90,0.02,,,0.20,WUHU216DAVISVP2,2013-03-12 08:15:00,
2013-03-12 04:20:00,41.7,39.0,29.85,WSW,238,1.0,4.0,90,0.02,,,0.20,WUHU216DAVISVP2,2013-03-12 08:20:00,
2013-03-12 04:25:00,41.6,39.2,29.86,West,264,0.0,3.0,91,0.02,,,0.20,WUHU216DAVISVP2,2013-03-12 08:25:00,
2013-03-12 04:30:00,41.6,39.2,29.86,WSW,257,1.0,3.0,91,0.03,,,0.21,WUHU216DAVISVP2,2013-03-12 08:30:00,
2013-03-12 04:35:00,41.4,38.9,29.86,WSW,257,1.0,2.0,91,0.03,,,0.21,WUHU216DAVISVP2,2013-03-12 08:35:00,
2013-03-12 04:40:00,41.3,39.1,29.86,WNW,291,0.0,2.0,92,0.03,,,0.21,WUHU216DAVISVP2,2013-03-12 08:40:00,
2013-03-12 04:45:00,41.2,39.1,29.87,WSW,248,1.0,2.0,92,0.04,,,0.22,WUHU216DAVISVP2,2013-03-12 08:45:00,
2013-03-12 04:50:00,41.2,39.0,29.87,WSW,247,1.0,2.0,92,0.04,,,0.22,WUHU216DAVISVP2,2013-03-12 08:50:00,
2013-03-12 04:55:00,41.1,38.9,29.87,WSW,252,2.1,4.0,92,0.04,,,0.23,WUHU216DAVISVP2,2013-03-12 08:55:00,
2013-03-12 05:00:00,41.0,38.6,29.87,WNW,302,2.8,5.0,91,0.04,,,0.23,WUHU216DAVISVP2,2013-03-12 09:00:00,
2013-03-12 05:05:00,40.8,37.5,29.88,West,281,2.2,7.0,88,0.04,,,0.23,WUHU216DAVISVP2,2013-03-12 09:05:00,
2013-03-12 05:10:00,40.7,37.7,29.88,NW,304,2.0,7.0,89,0.04,,,0.24,WUHU216DAVISVP2,2013-03-12 09:10:00,
2013-03-12 05:15:00,40.4,37.4,29.88,West,278,1.5,7.0,89,0.04,,,0.24,WUHU216DAVISVP2,2013-03-12 09:15:00,
2013-03-12 05:20:00,40.2,37.5,29.87,NNW,336,2.1,7.0,90,0.04,,,0.24,WUHU216DAVISVP2,2013-03-12 09:20:00,
2013-03-12 05:25:00,39.9,37.2,29.88,WNW,298,3.0,5.0,90,0.05,,,0.25,WUHU216DAVISVP2,2013-03-12 09:25:00,
2013-03-12 05:30:00,39.8,37.1,29.88,WNW,292,3.0,5.0,90,0.04,,,0.25,WUHU216DAVISVP2,2013-03-12 09:30:00,
2013-03-12 05:35:00,39.8,37.1,29.88,WNW,287,2.0,5.0,90,0.04,,,0.25,WUHU216DAVISVP2,2013-03-12 09:35:00,
2013-03-12 05:40:00,39.7,37.0,29.88,West,274,1.7,4.0,90,0.04,,,0.25,WUHU216DAVISVP2,2013-03-12 09:40:00,
2013-03-12 05:45:00,39.7,37.0,29.89,West,271,1.2,4.0,90,0.03,,,0.25,WUHU216DAVISVP2,2013-03-12 09:45:00,
2013-03-12 05:50:00,39.6,36.9,29.89,WNW,294,2.0,4.0,90,0.03,,,0.25,WUHU216DAVISVP2,2013-03-12 09:50:00,
2013-03-12 05:55:00,39.4,36.9,29.88,WNW,295,1.4,4.0,91,0.03,,,0.26,WUHU216DAVISVP2,2013-03-12 09:55:00,
2013-03-12 06:00:00,39.3,36.8,29.88,WNW,282,1.1,6.0,91,0.03,,,0.26,WUHU216DAVISVP2,2013-03-12 10:00:00,
2013-03-12 06:05:00,39.4,36.9,29.88,WSW,254,3.1,6.0,91,0.03,,,0.26,WUHU216DAVISVP2,2013-03-12 10:05:00,
2013-03-12 06:10:00,39.4,36.7,29.89,WSW,253,3.4,8.0,90,0.02,,,0.26,WUHU216DAVISVP2,2013-03-12 10:10:00,
2013-03-12 06:15:00,39.2,36.5,29.89,WNW,283,2.0,8.0,90,0.02,,,0.26,WUHU216DAVISVP2,2013-03-12 10:15:00,
2013-03-12 06:20:00,39.0,36.0,29.89,WNW,292,4.0,7.0,89,0.03,,,0.27,WUHU216DAVISVP2,2013-03-12 10:20:00,
2013-03-12 06:25:00,38.8,36.1,29.89,West,264,1.0,7.0,90,0.02,,,0.27,WUHU216DAVISVP2,2013-03-12 10:25:00,
2013-03-12 06:30:00,38.5,35.8,29.89,West,267,1.0,7.0,90,0.02,,,0.27,WUHU216DAVISVP2,2013-03-12 10:30:00,
2013-03-12 06:35:00,38.5,35.8,29.90,SW,214,2.0,7.0,90,0.02,,,0.27,WUHU216DAVISVP2,2013-03-12 10:35:00,
2013-03-12 06:40:00,38.5,35.8,29.90,West,278,1.3,4.0,90,0.02,,,0.27,WUHU216DAVISVP2,2013-03-12 10:40:00,
2013-03-12 06:45:00,38.4,36.0,29.90,West,259,2.0,4.0,91,0.02,,,0.27,WUHU216DAVISVP2,2013-03-12 10:45:00,
2013-03-12 06:50:00,38.3,35.6,29.91,WSW,257,2.0,5.0,90,0.02,,,0.27,WUHU216DAVISVP2,2013-03-12 10:50:00,
2013-03-12 06:55:00,38.4,35.7,29.91,West,280,1.4,5.0,90,0.01,,,0.27,WUHU216DAVISVP2,2013-03-12 10:55:00,
2013-03-12 07:00:00,38.3,35.6,29.91,West,262,1.8,4.0,90,0.01,,,0.27,WUHU216DAVISVP2,2013-03-12 11:00:00,
2013-03-12 07:05:00,38.3,35.6,29.91,WSW,244,1.0,4.0,90,0.01,,,0.27,WUHU216DAVISVP2,2013-03-12 11:05:00,
2013-03-12 07:10:00,38.1,35.7,29.91,West,269,1.0,3.0,91,0.01,,,0.27,WUHU216DAVISVP2,2013-03-12 11:10:00,
2013-03-12 07:15:00,37.9,35.5,29.91,WSW,257,0.0,3.0,91,0.01,,,0.27,WUHU216DAVISVP2,2013-03-12 11:15:00,
2013-03-12 07:20:00,37.8,35.4,29.91,WSW,257,1.0,2.0,91,0.00,,,0.27,WUHU216DAVISVP2,2013-03-12 11:20:00,
2013-03-12 07:25:00,37.7,35.5,29.91,West,281,1.0,1.0,92,0.00,,,0.27,WUHU216DAVISVP2,2013-03-12 11:25:00,
2013-03-12 07:30:00,37.6,35.4,29.91,North,359,0.0,1.0,92,0.00,,,0.27,WUHU216DAVISVP2,2013-03-12 11:30:00,
2013-03-12 07:35:00,37.5,35.3,29.91,North,360,0.0,1.0,92,0.00,,,0.27,WUHU216DAVISVP2,2013-03-12 11:35:00,
2013-03-12 07:40:00,37.5,35.3,29.92,North,360,0.0,1.0,92,0.00,,,0.27,WUHU216DAVISVP2,2013-03-12 11:40:00,
2013-03-12 07:45:00,37.5,35.3,29.92,North,360,0.0,1.0,92,0.00,,,0.27,WUHU216DAVISVP2,2013-03-12 11:45:00,
2013-03-12 07:50:00,37.5,35.4,29.92,WNW,294,2.0,3.0,92,0.00,,,0.27,WUHU216DAVISVP2,2013-03-12 11:50:00,
2013-03-12 07:55:00,37.6,35.2,29.92,WNW,286,1.8,3.0,91,0.00,,,0.27,WUHU216DAVISVP2,2013-03-12 11:55:00,
2013-03-12 08:00:00,37.8,34.8,29.93,NW,305,3.0,5.0,89,0.00,,,0.27,WUHU216DAVISVP2,2013-03-12 12:00:00,
2013-03-12 08:05:00,38.0,34.7,29.93,WNW,283,1.4,5.0,88,0.00,,,0.27,WUHU216DAVISVP2,2013-03-12 12:05:00,
2013-03-12 08:10:00,38.1,34.5,29.93,West,265,1.5,5.0,87,0.00,,,0.27,WUHU216DAVISVP2,2013-03-12 12:10:00,
2013-03-12 08:15:00,38.1,34.6,29.93,WSW,243,1.0,5.0,87,0.00,,,0.27,WUHU216DAVISVP2,2013-03-12 12:15:00,
2013-03-12 08:20:00,38.0,34.4,29.93,WNW,288,2.0,4.0,87,0.00,,,0.27,WUHU216DAVISVP2,2013-03-12 12:20:00,
2013-03-12 08:25:00,38.1,34.3,29.94,WNW,283,4.0,5.0,86,0.00,,,0.27,WUHU216DAVISVP2,2013-03-12 12:25:00,
2013-03-12 08:30:00,38.1,34.3,29.94,West,262,1.9,6.0,86,0.00,,,0.27,WUHU216DAVISVP2,2013-03-12 12:30:00,
2013-03-12 08:35:00,38.1,34.3,29.94,SW,229,3.0,8.0,86,0.01,,,0.28,WUHU216DAVISVP2,2013-03-12 12:35:00,
2013-03-12 08:40:00,38.0,33.6,29.94,West,280,3.7,9.0,84,0.01,,,0.28,WUHU216DAVISVP2,2013-03-12 12:40:00,
2013-03-12 08:45:00,38.0,33.9,29.95,WNW,285,3.0,9.0,85,0.01,,,0.28,WUHU216DAVISVP2,2013-03-12 12:45:00,
2013-03-12 08:50:00,38.1,33.7,29.95,WSW,252,2.4,8.0,84,0.01,,,0.28,WUHU216DAVISVP2,2013-03-12 12:50:00,
2013-03-12 08:55:00,38.1,33.7,29.95,WSW,253,2.0,8.0,84,0.01,,,0.28,WUHU216DAVISVP2,2013-03-12 12:55:00,
2013-03-12 09:00:00,38.1,34.0,29.95,SW,235,2.0,5.0,85,0.01,,,0.28,WUHU216DAVISVP2,2013-03-12 13:00:00,
2013-03-12 09:05:00,38.1,34.3,29.95,SW,214,1.0,4.0,86,0.01,,,0.28,WUHU216DAVISVP2,2013-03-12 13:05:00,
2013-03-12 09:10:00,38.1,34.3,29.95,West,267,1.1,4.0,86,0.01,,,0.28,WUHU216DAVISVP2,2013-03-12 13:10:00,
2013-03-12 09:15:00,38.1,34.5,29.95,WSW,248,0.0,3.0,87,0.01,,,0.28,WUHU216DAVISVP2,2013-03-12 13:15:00,
2013-03-12 09:20:00,38.2,34.6,29.95,WSW,242,1.2,2.0,87,0.01,,,0.28,WUHU216DAVISVP2,2013-03-12 13:20:00,
2013-03-12 09:25:00,38.3,34.5,29.95,SW,230,1.0,2.0,86,0.01,,,0.28,WUHU216DAVISVP2,2013-03-12 13:25:00,
2013-03-12 09:30:00,38.4,34.6,29.96,South,188,1.4,3.0,86,0.01,,,0.28,WUHU216DAVISVP2,2013-03-12 13:30:00,
2013-03-12 09:35:00,38.5,34.1,29.96,WSW,246,3.0,5.0,84,0.00,,,0.28,WUHU216DAVISVP2,2013-03-12 13:35:00,
2013-03-12 09:40:00,38.6,34.7,29.96,SW,234,1.5,5.0,86,0.00,,,0.28,WUHU216DAVISVP2,2013-03-12 13:40:00,
2013-03-12 09:45:00,38.6,33.9,29.96,WSW,248,1.5,5.0,83,0.00,,,0.28,WUHU216DAVISVP2,2013-03-12 13:45:00,
2013-03-12 09:50:00,38.7,34.6,29.96,WSW,252,1.0,3.0,85,0.00,,,0.28,WUHU216DAVISVP2,2013-03-12 13:50:00,
2013-03-12 09:55:00,38.7,33.7,29.95,West,278,1.6,3.0,82,0.00,,,0.28,WUHU216DAVISVP2,2013-03-12 13:55:00,
2013-03-12 10:00:00,38.8,34.1,29.95,West,259,1.0,3.0,83,0.00,,,0.28,WUHU216DAVISVP2,2013-03-12 14:00:00,
2013-03-12 10:05:00,38.8,33.8,29.95,WSW,247,2.4,6.0,82,0.00,,,0.28,WUHU216DAVISVP2,2013-03-12 14:05:00,
2013-03-12 10:10:00,38.8,33.8,29.95,WSW,247,4.0,6.0,82,0.00,,,0.28,WUHU216DAVISVP2,2013-03-12 14:10:00,
2013-03-12 10:15:00,38.8,33.5,29.95,West,274,1.7,6.0,81,0.00,,,0.28,WUHU216DAVISVP2,2013-03-12 14:15:00,
2013-03-12 10:20:00,38.8,33.5,29.95,WNW,301,2.0,6.0,81,0.00,,,0.28,WUHU216DAVISVP2,2013-03-12 14:20:00,
2013-03-12 10:25:00,38.6,33.3,29.95,West,259,2.6,5.0,81,0.00,,,0.28,WUHU216DAVISVP2,2013-03-12 14:25:00,
2013-03-12 10:30:00,38.5,33.2,29.96,WSW,256,2.8,6.0,81,0.00,,,0.28,WUHU216DAVISVP2,2013-03-12 14:30:00,
2013-03-12 10:35:00,38.5,33.2,29.96,West,271,2.0,6.0,81,0.00,,,0.28,WUHU216DAVISVP2,2013-03-12 14:35:00,
2013-03-12 10:40:00,38.5,33.5,29.96,WSW,258,1.9,6.0,82,0.00,,,0.28,WUHU216DAVISVP2,2013-03-12 14:40:00,
2013-03-12 10:45:00,38.5,33.5,29.96,WNW,294,2.0,6.0,82,0.00,,,0.28,WUHU216DAVISVP2,2013-03-12 14:45:00,
2013-03-12 10:50:00,38.4,33.1,29.96,WNW,290,2.0,4.0,81,0.00,,,0.28,WUHU216DAVISVP2,2013-03-12 14:50:00,
2013-03-12 10:55:00,38.4,33.4,29.96,West,280,5.0,5.0,82,0.00,,,0.28,WUHU216DAVISVP2,2013-03-12 14:55:00,
2013-03-12 11:00:00,38.3,33.0,29.96,West,280,1.6,5.0,81,0.00,,,0.28,WUHU216DAVISVP2,2013-03-12 15:00:00,
2013-03-12 11:05:00,38.3,33.3,29.96,NW,316,2.0,5.0,82,0.00,,,0.28,WUHU216DAVISVP2,2013-03-12 15:05:00,
2013-03-12 11:10:00,38.2,33.5,29.97,West,259,5.0,6.0,83,0.00,,,0.28,WUHU216DAVISVP2,2013-03-12 15:10:00,
2013-03-12 11:15:00,38.2,33.5,29.97,WNW,288,2.3,6.0,83,0.00,,,0.28,WUHU216DAVISVP2,2013-03-12 15:15:00,
2013-03-12 11:20:00,38.1,33.4,29.97,WNW,294,2.0,6.0,83,0.00,,,0.28,WUHU216DAVISVP2,2013-03-12 15:20:00,
2013-03-12 11:25:00,38.0,33.3,29.97,West,263,4.5,7.0,83,0.00,,,0.28,WUHU216DAVISVP2,2013-03-12 15:25:00,
2013-03-12 11:30:00,37.8,33.4,29.97,West,273,3.9,11.0,84,0.00,,,0.28,WUHU216DAVISVP2,2013-03-12 15:30:00,
2013-03-12 11:35:00,37.6,33.5,29.97,WSW,247,4.0,11.0,85,0.00,,,0.28,WUHU216DAVISVP2,2013-03-12 15:35:00,
2013-03-12 11:41:00,37.4,33.0,29.97,SW,233,3.0,10.0,84,0.00,,,0.28,WUHU216DAVISVP2,2013-03-12 15:41:00,
2013-03-12 11:46:00,37.3,33.5,29.97,WNW,294,7.0,10.0,86,0.00,,,0.28,WUHU216DAVISVP2,2013-03-12 15:46:00,
2013-03-12 11:51:00,37.2,33.1,29.97,West,270,3.7,7.0,85,0.00,,,0.28,WUHU216DAVISVP2,2013-03-12 15:51:00,
2013-03-12 11:56:00,37.2,33.1,29.97,NW,314,3.9,7.0,85,0.00,,,0.28,WUHU216DAVISVP2,2013-03-12 15:56:00,
2013-03-12 12:01:00,37.2,33.1,29.97,West,278,4.0,7.0,85,0.00,,,0.28,WUHU216DAVISVP2,2013-03-12 16:01:00,
2013-03-12 12:05:00,37.3,32.9,29.97,WNW,288,2.6,7.0,84,0.00,,,0.28,WUHU216DAVISVP2,2013-03-12 16:05:00,
2013-03-12 12:10:00,37.5,33.4,29.97,West,262,2.0,7.0,85,0.00,,,0.28,WUHU216DAVISVP2,2013-03-12 16:10:00,
2013-03-12 12:15:00,37.7,33.6,29.97,West,274,7.0,7.0,85,0.00,,,0.28,WUHU216DAVISVP2,2013-03-12 16:15:00,
2013-03-12 12:21:00,37.9,33.8,29.97,SW,233,5.0,8.0,85,0.00,,,0.28,WUHU216DAVISVP2,2013-03-12 16:21:00,
2013-03-12 12:26:00,38.2,33.8,29.97,WSW,246,3.2,8.0,84,0.00,,,0.28,WUHU216DAVISVP2,2013-03-12 16:26:00,
2013-03-12 12:31:00,38.5,34.4,29.98,West,260,3.0,8.0,85,0.00,,,0.28,WUHU216DAVISVP2,2013-03-12 16:31:00,
2013-03-12 12:36:00,38.7,34.3,29.98,WSW,245,2.8,11.0,84,0.00,,,0.28,WUHU216DAVISVP2,2013-03-12 16:36:00,
2013-03-12 12:41:00,38.8,34.1,29.97,West,268,1.6,11.0,83,0.00,,,0.28,WUHU216DAVISVP2,2013-03-12 16:41:00,
2013-03-12 12:46:00,39.1,34.7,29.97,WSW,238,1.2,10.0,84,0.00,,,0.28,WUHU216DAVISVP2,2013-03-12 16:46:00,
2013-03-12 12:51:00,39.3,34.6,29.97,WSW,258,1.1,10.0,83,0.00,,,0.28,WUHU216DAVISVP2,2013-03-12 16:51:00,
2013-03-12 12:56:00,39.1,34.1,29.97,WSW,238,5.0,7.0,82,0.00,,,0.28,WUHU216DAVISVP2,2013-03-12 16:56:00,
2013-03-12 13:01:00,39.1,33.8,29.97,WSW,256,2.5,8.0,81,0.00,,,0.28,WUHU216DAVISVP2,2013-03-12 17:01:00,
2013-03-12 13:06:00,39.3,34.3,29.97,WSW,240,4.0,8.0,82,0.00,,,0.28,WUHU216DAVISVP2,2013-03-12 17:06:00,
2013-03-12 13:11:00,39.3,33.7,29.97,WSW,246,2.8,7.0,80,0.00,,,0.28,WUHU216DAVISVP2,2013-03-12 17:11:00,
2013-03-12 13:16:00,39.3,34.0,29.97,WSW,245,3.5,7.0,81,0.00,,,0.28,WUHU216DAVISVP2,2013-03-12 17:16:00,
2013-03-12 13:21:00,39.5,34.5,29.98,West,264,1.6,6.0,82,0.00,,,0.28,WUHU216DAVISVP2,2013-03-12 17:21:00,
2013-03-12 13:26:00,39.7,34.1,29.98,WSW,246,4.0,6.0,80,0.00,,,0.28,WUHU216DAVISVP2,2013-03-12 17:26:00,
2013-03-12 13:31:00,39.7,33.7,29.97,WSW,238,4.0,8.0,79,0.00,,,0.28,WUHU216DAVISVP2,2013-03-12 17:31:00,
2013-03-12 13:36:00,39.6,34.0,29.97,WNW,301,5.0,8.0,80,0.00,,,0.28,WUHU216DAVISVP2,2013-03-12 17:36:00,
2013-03-12 13:41:00,39.6,34.0,29.98,West,277,2.4,8.0,80,0.00,,,0.28,WUHU216DAVISVP2,2013-03-12 17:41:00,
2013-03-12 13:46:00,39.6,33.9,29.98,SSW,203,6.0,8.0,80,0.00,,,0.28,WUHU216DAVISVP2,2013-03-12 17:46:00,
2013-03-12 13:51:00,39.5,33.2,29.98,WSW,247,4.3,10.0,78,0.00,,,0.28,WUHU216DAVISVP2,2013-03-12 17:51:00,
2013-03-12 13:56:00,39.4,33.1,29.98,SW,227,7.0,10.0,78,0.00,,,0.28,WUHU216DAVISVP2,2013-03-12 17:56:00,
2013-03-12 14:01:00,39.4,33.1,29.98,West,270,4.0,9.0,78,0.00,,,0.28,WUHU216DAVISVP2,2013-03-12 18:01:00,
2013-03-12 14:06:00,39.6,33.0,29.98,WSW,257,6.0,12.0,77,0.00,,,0.28,WUHU216DAVISVP2,2013-03-12 18:06:00,
2013-03-12 14:11:00,39.7,33.1,29.98,West,259,9.0,12.0,77,0.00,,,0.28,WUHU216DAVISVP2,2013-03-12 18:11:00,
2013-03-12 14:16:00,39.8,32.9,29.98,WSW,248,3.7,12.0,76,0.00,,,0.28,WUHU216DAVISVP2,2013-03-12 18:16:00,
2013-03-12 14:21:00,39.9,33.0,29.98,West,263,4.5,11.0,76,0.00,,,0.28,WUHU216DAVISVP2,2013-03-12 18:21:00,
2013-03-12 14:26:00,39.7,32.4,29.99,West,262,4.3,10.0,75,0.00,,,0.28,WUHU216DAVISVP2,2013-03-12 18:26:00,
2013-03-12 14:31:00,39.7,32.8,29.98,WNW,287,5.0,10.0,76,0.00,,,0.28,WUHU216DAVISVP2,2013-03-12 18:31:00,
2013-03-12 14:36:00,39.7,32.8,29.98,WSW,257,3.9,10.0,76,0.00,,,0.28,WUHU216DAVISVP2,2013-03-12 18:36:00,
2013-03-12 14:41:00,39.7,32.4,29.98,NW,310,4.0,10.0,75,0.00,,,0.28,WUHU216DAVISVP2,2013-03-12 18:41:00,
2013-03-12 14:46:00,39.9,33.0,29.98,WSW,249,5.0,10.0,76,0.00,,,0.28,WUHU216DAVISVP2,2013-03-12 18:46:00,
2013-03-12 14:51:00,40.1,33.5,29.98,WSW,258,2.4,10.0,77,0.00,,,0.28,WUHU216DAVISVP2,2013-03-12 18:51:00,
2013-03-12 14:56:00,40.0,33.1,29.98,WNW,302,4.0,9.0,76,0.00,,,0.28,WUHU216DAVISVP2,2013-03-12 18:56:00,
2013-03-12 15:01:00,39.8,32.6,29.98,WSW,255,3.6,8.0,75,0.00,,,0.28,WUHU216DAVISVP2,2013-03-12 19:01:00,
2013-03-12 15:06:00,39.7,32.5,29.98,WSW,247,4.2,8.0,75,0.00,,,0.28,WUHU216DAVISVP2,2013-03-12 19:06:00,
2013-03-12 15:11:00,39.7,32.8,29.97,West,268,1.7,8.0,76,0.00,,,0.28,WUHU216DAVISVP2,2013-03-12 19:11:00,
2013-03-12 15:16:00,39.7,33.1,29.97,WSW,257,4.0,7.0,77,0.00,,,0.28,WUHU216DAVISVP2,2013-03-12 19:16:00,
2013-03-12 15:21:00,39.9,32.9,29.96,WNW,291,2.6,7.0,76,0.00,,,0.28,WUHU216DAVISVP2,2013-03-12 19:21:00,
2013-03-12 15:26:00,40.1,32.8,29.96,WSW,255,2.5,7.0,75,0.00,,,0.28,WUHU216DAVISVP2,2013-03-12 19:26:00,
2013-03-12 15:31:00,40.0,32.8,29.96,West,266,2.9,7.0,75,0.00,,,0.28,WUHU216DAVISVP2,2013-03-12 19:31:00,
2013-03-12 15:37:00,40.2,33.3,29.96,WNW,298,2.0,5.0,76,0.00,,,0.28,WUHU216DAVISVP2,2013-03-12 19:37:00,
2013-03-12 15:42:00,40.9,33.3,29.97,NW,314,1.7,5.0,74,0.00,,,0.28,WUHU216DAVISVP2,2013-03-12 19:42:00,
2013-03-12 15:47:00,41.0,32.4,29.97,WSW,243,1.7,5.0,71,0.00,,,0.28,WUHU216DAVISVP2,2013-03-12 19:47:00,
2013-03-12 15:52:00,40.9,32.6,29.97,West,261,1.8,5.0,72,0.00,,,0.28,WUHU216DAVISVP2,2013-03-12 19:52:00,
2013-03-12 15:57:00,41.0,32.7,29.97,WSW,252,3.4,6.0,72,0.00,,,0.28,WUHU216DAVISVP2,2013-03-12 19:57:00,
2013-03-12 16:02:00,40.7,32.1,29.97,WNW,303,3.8,9.0,71,0.00,,,0.28,WUHU216DAVISVP2,2013-03-12 20:02:00,
2013-03-12 16:07:00,40.6,32.0,29.97,West,274,2.2,9.0,71,0.00,,,0.28,WUHU216DAVISVP2,2013-03-12 20:07:00,
2013-03-12 16:12:00,40.4,32.2,29.97,WSW,242,2.4,9.0,72,0.00,,,0.28,WUHU216DAVISVP2,2013-03-12 20:12:00,
2013-03-12 16:17:00,40.1,31.9,29.98,WNW,294,6.0,9.0,72,0.00,,,0.28,WUHU216DAVISVP2,2013-03-12 20:17:00,
2013-03-12 16:22:00,39.9,31.3,29.98,WNW,302,5.0,9.0,71,0.00,,,0.28,WUHU216DAVISVP2,2013-03-12 20:22:00,
2013-03-12 16:27:00,39.7,31.4,29.99,WNW,295,3.2,9.0,72,0.00,,,0.28,WUHU216DAVISVP2,2013-03-12 20:27:00,
2013-03-12 16:32:00,39.7,31.8,29.99,WSW,250,4.0,9.0,73,0.00,,,0.28,WUHU216DAVISVP2,2013-03-12 20:32:00,
2013-03-12 16:37:00,39.8,31.9,29.99,WNW,289,3.8,8.0,73,0.00,,,0.28,WUHU216DAVISVP2,2013-03-12 20:37:00,
2013-03-12 16:42:00,39.8,31.9,29.99,WSW,254,2.9,8.0,73,0.00,,,0.28,WUHU216DAVISVP2,2013-03-12 20:42:00,
2013-03-12 16:47:00,39.9,31.7,29.99,WSW,252,3.4,8.0,72,0.00,,,0.28,WUHU216DAVISVP2,2013-03-12 20:47:00,
2013-03-12 16:52:00,39.9,32.0,29.99,WSW,248,4.0,8.0,73,0.00,,,0.28,WUHU216DAVISVP2,2013-03-12 20:52:00,
2013-03-12 16:57:00,39.8,31.9,29.99,WSW,249,3.0,10.0,73,0.00,,,0.28,WUHU216DAVISVP2,2013-03-12 20:57:00,
2013-03-12 17:02:00,39.7,31.8,29.99,West,261,3.5,10.0,73,0.00,,,0.28,WUHU216DAVISVP2,2013-03-12 21:02:00,
2013-03-12 17:07:00,39.7,31.5,29.99,WSW,258,2.5,9.0,72,0.00,,,0.28,WUHU216DAVISVP2,2013-03-12 21:07:00,
2013-03-12 17:12:00,39.6,32.1,30.00,West,259,2.6,9.0,74,0.00,,,0.28,WUHU216DAVISVP2,2013-03-12 21:12:00,
2013-03-12 17:17:00,39.5,32.0,30.00,WNW,294,3.0,6.0,74,0.00,,,0.28,WUHU216DAVISVP2,2013-03-12 21:17:00,
2013-03-12 17:22:00,39.4,31.2,30.00,West,259,2.9,8.0,72,0.00,,,0.28,WUHU216DAVISVP2,2013-03-12 21:22:00,
2013-03-12 17:27:00,39.4,31.5,30.00,West,264,4.0,8.0,73,0.00,,,0.28,WUHU216DAVISVP2,2013-03-12 21:27:00,
2013-03-12 17:32:00,39.4,31.2,30.00,WSW,256,2.6,8.0,72,0.00,,,0.28,WUHU216DAVISVP2,2013-03-12 21:32:00,
2013-03-12 17:37:00,39.4,31.2,30.00,WSW,250,2.6,8.0,72,0.00,,,0.28,WUHU216DAVISVP2,2013-03-12 21:37:00,
2013-03-12 17:42:00,39.5,31.3,30.00,WSW,251,3.3,8.0,72,0.00,,,0.28,WUHU216DAVISVP2,2013-03-12 21:42:00,
2013-03-12 17:47:00,39.5,31.6,29.99,WSW,247,2.6,7.0,73,0.00,,,0.28,WUHU216DAVISVP2,2013-03-12 21:47:00,
2013-03-12 17:52:00,39.5,31.2,30.00,West,259,2.5,7.0,72,0.00,,,0.28,WUHU216DAVISVP2,2013-03-12 21:52:00,
2013-03-12 17:57:00,39.5,31.6,30.00,West,266,2.0,6.0,73,0.00,,,0.28,WUHU216DAVISVP2,2013-03-12 21:57:00,
2013-03-12 18:02:00,39.6,31.0,30.00,WNW,292,4.0,6.0,71,0.00,,,0.28,WUHU216DAVISVP2,2013-03-12 22:02:00,
2013-03-12 18:08:00,39.5,31.3,30.00,WNW,290,3.0,7.0,72,0.00,,,0.28,WUHU216DAVISVP2,2013-03-12 22:08:00,
2013-03-12 18:12:00,39.5,30.9,30.01,WSW,255,3.0,7.0,71,0.00,,,0.28,WUHU216DAVISVP2,2013-03-12 22:12:00,
2013-03-12 18:17:00,39.5,30.9,30.01,West,265,2.4,7.0,71,0.00,,,0.28,WUHU216DAVISVP2,2013-03-12 22:17:00,
2013-03-12 18:22:00,39.4,30.9,30.01,West,259,3.0,6.0,71,0.00,,,0.28,WUHU216DAVISVP2,2013-03-12 22:22:00,
2013-03-12 18:28:00,39.4,30.9,30.01,West,264,1.2,6.0,71,0.00,,,0.28,WUHU216DAVISVP2,2013-03-12 22:28:00,
2013-03-12 18:33:00,39.3,30.8,30.01,WNW,288,3.0,4.0,71,0.00,,,0.28,WUHU216DAVISVP2,2013-03-12 22:33:00,
2013-03-12 18:38:00,39.4,31.2,30.01,WSW,244,1.8,5.0,72,0.00,,,0.28,WUHU216DAVISVP2,2013-03-12 22:38:00,
2013-03-12 18:43:00,39.4,30.9,30.01,West,261,3.0,5.0,71,0.00,,,0.28,WUHU216DAVISVP2,2013-03-12 22:43:00,
2013-03-12 18:48:00,39.4,31.2,30.01,WSW,252,1.2,6.0,72,0.00,,,0.28,WUHU216DAVISVP2,2013-03-12 22:48:00,
2013-03-12 18:52:00,39.3,30.7,30.01,SW,223,4.0,6.0,71,0.00,,,0.28,WUHU216DAVISVP2,2013-03-12 22:52:00,
2013-03-12 18:57:00,39.3,30.7,30.01,West,269,3.0,6.0,71,0.00,,,0.28,WUHU216DAVISVP2,2013-03-12 22:57:00,
2013-03-12 19:02:00,39.3,30.7,30.01,West,260,2.8,5.0,71,0.00,,,0.28,WUHU216DAVISVP2,2013-03-12 23:02:00,
2013-03-12 19:07:00,39.2,30.7,30.01,WNW,289,1.2,5.0,71,0.00,,,0.28,WUHU216DAVISVP2,2013-03-12 23:07:00,
2013-03-12 19:12:00,39.2,30.7,30.01,WSW,253,3.0,5.0,71,0.00,,,0.28,WUHU216DAVISVP2,2013-03-12 23:12:00,
2013-03-12 19:17:00,39.2,30.7,30.02,WSW,251,2.2,5.0,71,0.00,,,0.28,WUHU216DAVISVP2,2013-03-12 23:17:00,
2013-03-12 19:23:00,39.2,30.7,30.02,WSW,254,3.6,5.0,71,0.00,,,0.28,WUHU216DAVISVP2,2013-03-12 23:23:00,
2013-03-12 19:28:00,39.0,30.8,30.03,WSW,255,1.5,5.0,72,0.00,,,0.28,WUHU216DAVISVP2,2013-03-12 23:28:00,
2013-03-12 19:33:00,39.0,30.8,30.03,WSW,256,1.0,5.0,72,0.00,,,0.28,WUHU216DAVISVP2,2013-03-12 23:33:00,
2013-03-12 19:38:00,38.9,30.6,30.03,West,264,2.0,5.0,72,0.00,,,0.28,WUHU216DAVISVP2,2013-03-12 23:38:00,
2013-03-12 19:43:00,38.9,30.7,30.03,West,265,2.0,4.0,72,0.00,,,0.28,WUHU216DAVISVP2,2013-03-12 23:43:00,
2013-03-12 19:48:00,38.8,30.9,30.03,WNW,285,1.0,4.0,73,0.00,,,0.28,WUHU216DAVISVP2,2013-03-12 23:48:00,
2013-03-12 19:53:00,38.6,30.4,30.03,WNW,285,1.0,3.0,72,0.00,,,0.28,WUHU216DAVISVP2,2013-03-12 23:53:00,
2013-03-12 19:58:00,38.6,30.8,30.03,WSW,253,1.2,3.0,73,0.00,,,0.28,WUHU216DAVISVP2,2013-03-12 23:58:00,
2013-03-12 20:03:00,38.7,30.9,30.03,WSW,246,1.3,3.0,73,0.00,,,0.28,WUHU216DAVISVP2,2013-03-13 00:03:00,
2013-03-12 20:08:00,38.7,30.9,30.03,WSW,253,1.0,2.0,73,0.00,,,0.28,WUHU216DAVISVP2,2013-03-13 00:08:00,
2013-03-12 20:13:00,38.5,30.7,30.03,WSW,253,0.0,2.0,73,0.00,,,0.28,WUHU216DAVISVP2,2013-03-13 00:13:00,
2013-03-12 20:18:00,38.4,30.9,30.03,WSW,253,0.0,2.0,74,0.00,,,0.28,WUHU216DAVISVP2,2013-03-13 00:18:00,
2013-03-12 20:23:00,38.2,31.0,30.03,WSW,253,0.0,1.0,75,0.00,,,0.28,WUHU216DAVISVP2,2013-03-13 00:23:00,
2013-03-12 20:28:00,38.0,30.8,30.03,WSW,253,0.0,0.0,75,0.00,,,0.28,WUHU216DAVISVP2,2013-03-13 00:28:00,
2013-03-12 20:33:00,37.8,31.3,30.04,WSW,253,0.0,0.0,77,0.00,,,0.28,WUHU216DAVISVP2,2013-03-13 00:33:00,
2013-03-12 20:38:00,37.6,31.7,30.04,WSW,253,0.0,0.0,79,0.00,,,0.28,WUHU216DAVISVP2,2013-03-13 00:38:00,
2013-03-12 20:43:00,37.5,31.3,30.04,WSW,253,0.0,0.0,78,0.00,,,0.28,WUHU216DAVISVP2,2013-03-13 00:43:00,
2013-03-12 20:48:00,37.4,31.8,30.04,WSW,253,0.0,0.0,80,0.00,,,0.28,WUHU216DAVISVP2,2013-03-13 00:48:00,
2013-03-12 20:53:00,37.2,31.9,30.04,WSW,253,0.0,0.0,81,0.00,,,0.28,WUHU216DAVISVP2,2013-03-13 00:53:00,
2013-03-12 20:58:00,37.3,31.7,30.04,WSW,253,1.0,1.0,80,0.00,,,0.28,WUHU216DAVISVP2,2013-03-13 00:58:00,
2013-03-12 21:03:00,37.3,32.0,30.04,WSW,253,0.0,1.0,81,0.00,,,0.28,WUHU216DAVISVP2,2013-03-13 01:03:00,
2013-03-12 21:08:00,37.1,31.8,30.04,WSW,253,0.0,1.0,81,0.00,,,0.28,WUHU216DAVISVP2,2013-03-13 01:08:00,
2013-03-12 21:13:00,37.0,31.4,30.05,WSW,253,0.0,1.0,80,0.00,,,0.28,WUHU216DAVISVP2,2013-03-13 01:13:00,
2013-03-12 21:18:00,36.9,32.2,30.05,WSW,253,0.0,0.0,83,0.00,,,0.28,WUHU216DAVISVP2,2013-03-13 01:18:00,
2013-03-12 21:23:00,36.9,31.9,30.05,WSW,253,0.0,0.0,82,0.00,,,0.28,WUHU216DAVISVP2,2013-03-13 01:23:00,
2013-03-12 21:28:00,36.9,31.6,30.05,WSW,253,1.0,1.0,81,0.00,,,0.28,WUHU216DAVISVP2,2013-03-13 01:28:00,
2013-03-12 21:33:00,37.0,31.4,30.05,WSW,252,1.0,2.0,80,0.00,,,0.28,WUHU216DAVISVP2,2013-03-13 01:33:00,
2013-03-12 21:38:00,37.3,31.7,30.05,WNW,283,0.0,2.0,80,0.00,,,0.28,WUHU216DAVISVP2,2013-03-13 01:38:00,
2013-03-12 21:43:00,37.3,31.4,30.05,WNW,284,0.0,1.0,79,0.00,,,0.28,WUHU216DAVISVP2,2013-03-13 01:43:00,
2013-03-12 21:48:00,37.2,30.7,30.05,WNW,285,1.0,1.0,77,0.00,,,0.28,WUHU216DAVISVP2,2013-03-13 01:48:00,
2013-03-12 21:53:00,37.6,30.4,30.05,WSW,255,2.6,7.0,75,0.00,,,0.28,WUHU216DAVISVP2,2013-03-13 01:53:00,
2013-03-12 21:58:00,37.9,31.1,30.05,NW,309,0.0,7.0,76,0.00,,,0.28,WUHU216DAVISVP2,2013-03-13 01:58:00,
2013-03-12 22:03:00,37.7,30.2,30.05,WSW,252,1.0,6.0,74,0.00,,,0.28,WUHU216DAVISVP2,2013-03-13 02:03:00,
2013-03-12 22:08:00,37.9,30.1,30.06,West,259,1.0,6.0,73,0.00,,,0.28,WUHU216DAVISVP2,2013-03-13 02:08:00,
2013-03-12 22:13:00,37.9,29.7,30.06,West,259,0.0,2.0,72,0.00,,,0.28,WUHU216DAVISVP2,2013-03-13 02:13:00,
2013-03-12 22:18:00,37.9,30.1,30.06,West,259,0.0,1.0,73,0.00,,,0.28,WUHU216DAVISVP2,2013-03-13 02:18:00,
2013-03-12 22:23:00,37.7,30.2,30.05,West,259,1.0,1.0,74,0.00,,,0.28,WUHU216DAVISVP2,2013-03-13 02:23:00,
2013-03-12 22:28:00,37.7,30.5,30.06,West,259,0.0,1.0,75,0.00,,,0.28,WUHU216DAVISVP2,2013-03-13 02:28:00,
2013-03-12 22:33:00,37.5,30.0,30.06,West,259,0.0,1.0,74,0.00,,,0.28,WUHU216DAVISVP2,2013-03-13 02:33:00,
2013-03-12 22:38:00,37.5,31.3,30.06,West,259,0.0,1.0,78,0.00,,,0.28,WUHU216DAVISVP2,2013-03-13 02:38:00,
2013-03-12 22:43:00,37.3,31.4,30.06,West,259,0.0,0.0,79,0.00,,,0.28,WUHU216DAVISVP2,2013-03-13 02:43:00,
2013-03-12 22:48:00,37.2,31.0,30.06,West,259,0.0,0.0,78,0.00,,,0.28,WUHU216DAVISVP2,2013-03-13 02:48:00,
2013-03-12 22:53:00,37.1,31.5,30.06,West,259,0.0,0.0,80,0.00,,,0.28,WUHU216DAVISVP2,2013-03-13 02:53:00,
2013-03-12 22:58:00,37.0,31.7,30.06,SW,224,1.0,1.0,81,0.00,,,0.28,WUHU216DAVISVP2,2013-03-13 02:58:00,
2013-03-12 23:04:00,36.9,31.9,30.06,South,183,0.0,1.0,82,0.00,,,0.28,WUHU216DAVISVP2,2013-03-13 03:04:00,
2013-03-12 23:09:00,36.8,31.8,30.06,South,183,0.0,1.0,82,0.00,,,0.28,WUHU216DAVISVP2,2013-03-13 03:09:00,
2013-03-12 23:14:00,36.6,31.9,30.06,South,183,0.0,1.0,83,0.00,,,0.28,WUHU216DAVISVP2,2013-03-13 03:14:00,
2013-03-12 23:19:00,36.3,31.9,30.06,South,183,0.0,0.0,84,0.00,,,0.28,WUHU216DAVISVP2,2013-03-13 03:19:00,
2013-03-12 23:24:00,36.2,31.8,30.06,South,183,0.0,0.0,84,0.00,,,0.28,WUHU216DAVISVP2,2013-03-13 03:24:00,
2013-03-12 23:29:00,36.3,31.6,30.06,South,183,0.0,0.0,83,0.00,,,0.28,WUHU216DAVISVP2,2013-03-13 03:29:00,
2013-03-12 23:34:00,36.3,31.6,30.05,South,183,0.0,1.0,83,0.00,,,0.28,WUHU216DAVISVP2,2013-03-13 03:34:00,
2013-03-12 23:39:00,36.3,31.9,30.05,South,183,0.0,1.0,84,0.00,,,0.28,WUHU216DAVISVP2,2013-03-13 03:39:00,
2013-03-12 23:44:00,36.3,31.9,30.05,South,183,0.0,1.0,84,0.00,,,0.28,WUHU216DAVISVP2,2013-03-13 03:44:00,
2013-03-12 23:49:00,36.1,32.0,30.05,South,183,0.0,1.0,85,0.00,,,0.28,WUHU216DAVISVP2,2013-03-13 03:49:00,
2013-03-12 23:54:00,36.0,32.2,30.05,South,182,0.0,1.0,86,0.00,,,0.28,WUHU216DAVISVP2,2013-03-13 03:54:00,
2013-03-12 23:59:00,35.9,32.1,30.05,SSE,162,1.0,1.0,86,0.00,,,0.28,WUHU216DAVISVP2,2013-03-13 03:59:00,